Time;durP1;ratioP1;P1;durP2;ratioP2;P2;SDS_P1;SDS_P2;PMS_P1;PMS_P2;Temp;Humidity;BMP_temperature;BMP_pressure;BME280_temperature;BME280_humidity;BME280_pressure;Samples;Min_cycle;Max_cycle;Signal;HPM_P1;HPM_P2
2023/07/30 00:00:40;;;;;;;0.00;0.00;;;18.70;99.90;;;;;;5092193;28;20191;-67
2023/07/30 00:03:05;;;;;;;0.00;0.00;;;18.80;99.90;;;;;;5091876;28;20661;-66
2023/07/30 00:05:31;;;;;;;0.00;0.00;;;18.70;99.90;;;;;;5091371;28;20176;-66
2023/07/30 00:07:56;;;;;;;0.00;0.00;;;18.50;99.90;;;;;;5091788;28;20175;-67
2023/07/30 00:10:22;;;;;;;0.00;0.00;;;18.50;99.90;;;;;;5092000;28;20195;-66
2023/07/30 00:12:47;;;;;;;0.00;0.00;;;18.50;99.90;;;;;;5091412;28;20208;-66
2023/07/30 00:15:13;;;;;;;0.00;0.00;;;18.50;99.90;;;;;;5091594;28;20203;-66
2023/07/30 00:17:39;;;;;;;0.00;0.00;;;18.60;99.90;;;;;;5090518;28;20620;-66
2023/07/30 00:20:07;;;;;;;0.00;0.00;;;18.60;99.90;;;;;;5091234;28;20266;-66
2023/07/30 00:22:33;;;;;;;0.00;0.00;;;18.70;99.90;;;;;;5091861;28;20180;-66
2023/07/30 00:24:58;;;;;;;0.00;0.00;;;18.70;99.90;;;;;;5091668;28;20176;-66
2023/07/30 00:27:24;;;;;;;0.00;0.00;;;18.80;99.90;;;;;;5091001;28;21769;-66
2023/07/30 00:29:49;;;;;;;0.00;0.00;;;18.80;99.90;;;;;;5091672;28;20180;-66
2023/07/30 00:32:16;;;;;;;0.00;0.00;;;18.80;99.90;;;;;;5091465;28;20183;-67
2023/07/30 00:34:43;;;;;;;0.00;0.00;;;18.70;99.90;;;;;;5091065;28;20168;-66
2023/07/30 00:37:08;;;;;;;0.00;0.00;;;18.60;99.90;;;;;;5091246;28;20246;-67
2023/07/30 00:39:34;;;;;;;0.00;0.00;;;18.50;99.90;;;;;;5090657;28;20714;-66
2023/07/30 00:41:59;;;;;;;0.00;0.00;;;18.40;99.90;;;;;;5091265;28;20183;-66
2023/07/30 00:44:25;;;;;;;0.00;0.00;;;18.30;99.90;;;;;;5089983;28;20184;-66
2023/07/30 00:46:50;;;;;;;0.00;0.00;;;18.30;99.90;;;;;;5091218;28;20180;-67
2023/07/30 00:49:16;;;;;;;0.00;0.00;;;18.30;99.90;;;;;;5090592;28;20263;-66
2023/07/30 00:51:43;;;;;;;0.00;0.00;;;18.30;99.90;;;;;;5090173;28;20180;-66
2023/07/30 00:54:09;;;;;;;0.00;0.00;;;18.30;99.90;;;;;;5090840;28;20639;-66
2023/07/30 00:56:36;;;;;;;0.00;0.00;;;18.30;99.90;;;;;;5089868;28;20203;-66
2023/07/30 00:59:01;;;;;;;0.00;0.00;;;18.30;99.90;;;;;;5091209;28;20219;-67
2023/07/30 01:01:28;;;;;;;0.00;0.00;;;18.30;99.90;;;;;;5089733;28;20281;-67
2023/07/30 01:03:54;;;;;;;0.00;0.00;;;18.30;99.90;;;;;;5091229;28;20616;-66
2023/07/30 01:06:20;;;;;;;0.00;0.00;;;18.30;99.90;;;;;;5090198;28;20172;-67
2023/07/30 01:08:46;;;;;;;0.00;0.00;;;18.20;99.90;;;;;;5091053;28;20172;-67
2023/07/30 01:11:13;;;;;;;0.00;0.00;;;18.20;99.90;;;;;;5090313;28;20180;-66
2023/07/30 01:13:39;;;;;;;0.00;0.00;;;18.20;99.90;;;;;;5090694;28;20259;-67
2023/07/30 01:16:06;;;;;;;0.00;0.00;;;18.20;99.90;;;;;;5089817;28;20286;-66
2023/07/30 01:18:32;;;;;;;0.00;0.00;;;18.20;99.90;;;;;;5090622;28;20195;-67
2023/07/30 01:20:58;;;;;;;0.00;0.00;;;18.20;99.90;;;;;;5090693;28;20261;-66
2023/07/30 01:23:25;;;;;;;0.00;0.00;;;18.20;99.90;;;;;;5091028;28;20184;-66
2023/07/30 01:26:03;;;;;;;0.00;0.00;;;18.20;99.90;;;;;;5091026;28;20180;-66
2023/07/30 01:28:33;;;;;;;0.00;0.00;;;18.10;99.90;;;;;;5081258;28;20725;-66
2023/07/30 01:31:02;;;;;;;0.00;0.00;;;18.10;99.90;;;;;;5090752;28;20230;-66
2023/07/30 01:33:29;;;;;;;0.00;0.00;;;18.10;99.90;;;;;;5090413;28;20184;-66
2023/07/30 01:35:57;;;;;;;0.00;0.00;;;18.10;99.90;;;;;;5089379;28;20183;-66
2023/07/30 01:38:23;;;;;;;0.00;0.00;;;18.10;99.90;;;;;;5090371;28;20199;-66
2023/07/30 01:40:48;;;;;;;0.00;0.00;;;18.10;99.90;;;;;;5090558;28;20211;-67
2023/07/30 01:43:14;;;;;;;0.00;0.00;;;18.10;99.90;;;;;;5090005;28;20219;-67
2023/07/30 01:45:40;;;;;;;0.00;0.00;;;18.10;99.90;;;;;;5090396;28;20275;-67
2023/07/30 01:48:06;;;;;;;0.00;0.00;;;18.20;99.90;;;;;;5090695;28;20177;-66
2023/07/30 01:50:31;;;;;;;0.00;0.00;;;18.20;99.90;;;;;;5089958;28;20225;-66
2023/07/30 01:52:57;;;;;;;0.00;0.00;;;18.20;99.90;;;;;;5090451;28;20496;-66
2023/07/30 01:55:22;;;;;;;0.00;0.00;;;18.20;99.90;;;;;;5089561;28;20191;-66
2023/07/30 01:57:48;;;;;;;0.00;0.00;;;18.30;99.90;;;;;;5089779;28;20212;-67
2023/07/30 02:00:14;;;;;;;0.00;0.00;;;18.30;99.90;;;;;;5082743;28;20235;-67
2023/07/30 02:02:39;;;;;;;0.00;0.00;;;18.30;99.90;;;;;;5089348;28;20536;-67
2023/07/30 02:05:05;;;;;;;0.00;0.00;;;18.30;99.90;;;;;;5088594;28;20176;-67
2023/07/30 02:07:30;;;;;;;0.00;0.00;;;18.30;99.90;;;;;;5089235;28;20674;-67
2023/07/30 02:09:56;;;;;;;0.00;0.00;;;18.30;99.90;;;;;;5093654;28;20176;-67
2023/07/30 02:12:22;;;;;;;0.00;0.00;;;18.30;99.90;;;;;;5093755;28;20188;-67
2023/07/30 02:14:47;;;;;;;0.00;0.00;;;18.30;99.90;;;;;;5093999;28;20258;-67
2023/07/30 02:17:13;;;;;;;0.00;0.00;;;18.30;99.90;;;;;;5093978;28;20374;-67
2023/07/30 02:19:38;;;;;;;0.00;0.00;;;18.40;99.90;;;;;;5093832;28;20178;-67
2023/07/30 02:22:04;;;;;;;0.00;0.00;;;18.40;99.90;;;;;;5093500;28;20227;-67
2023/07/30 02:24:30;;;;;;;0.00;0.00;;;18.40;99.90;;;;;;5093824;28;20183;-67
2023/07/30 02:26:55;;;;;;;0.00;0.00;;;18.40;99.90;;;;;;5093487;28;20184;-67
2023/07/30 02:29:21;;;;;;;0.00;0.00;;;18.50;99.90;;;;;;5091750;28;20227;-67
2023/07/30 02:31:46;;;;;;;0.00;0.00;;;18.40;99.90;;;;;;5093967;28;20183;-67
2023/07/30 02:34:12;;;;;;;0.00;0.00;;;18.50;99.90;;;;;;5093373;28;20210;-67
2023/07/30 02:36:37;;;;;;;0.00;0.00;;;18.40;99.90;;;;;;5093337;28;20667;-67
2023/07/30 02:39:03;;;;;;;0.00;0.00;;;18.40;99.90;;;;;;5093660;28;20263;-67
2023/07/30 02:41:28;;;;;;;0.00;0.00;;;18.50;99.90;;;;;;5092662;28;20191;-67
2023/07/30 02:43:54;;;;;;;0.00;0.00;;;18.50;99.90;;;;;;5093795;28;20647;-67
2023/07/30 02:46:19;;;;;;;0.00;0.00;;;18.50;99.90;;;;;;5093505;28;20183;-67
2023/07/30 02:48:45;;;;;;;0.00;0.00;;;18.50;99.90;;;;;;5092983;28;20184;-67
2023/07/30 02:51:10;;;;;;;0.00;0.00;;;18.50;99.90;;;;;;5092798;28;20518;-67
2023/07/30 02:53:36;;;;;;;0.00;0.00;;;18.50;99.90;;;;;;5092964;28;20670;-67
2023/07/30 02:56:02;;;;;;;0.00;0.00;;;18.40;99.90;;;;;;5092511;28;20651;-67
2023/07/30 02:58:27;;;;;;;0.00;0.00;;;18.40;99.90;;;;;;5093018;28;20199;-67
2023/07/30 03:00:53;;;;;;;0.00;0.00;;;18.30;99.90;;;;;;5093569;28;20610;-67
2023/07/30 03:03:18;;;;;;;0.13;0.10;;;18.30;99.90;;;;;;5093023;28;20776;-67
2023/07/30 03:05:44;;;;;;;0.00;0.00;;;18.30;99.90;;;;;;5090929;28;20176;-67
2023/07/30 03:08:09;;;;;;;0.32;0.32;;;18.30;99.90;;;;;;5093014;28;20172;-67
2023/07/30 03:10:36;;;;;;;0.00;0.00;;;18.30;99.90;;;;;;5088647;28;20189;-67
2023/07/30 03:13:02;;;;;;;0.00;0.00;;;18.30;99.90;;;;;;5090520;28;20186;-67
2023/07/30 03:15:28;;;;;;;0.00;0.00;;;18.30;99.90;;;;;;5092962;28;20206;-67
2023/07/30 03:17:53;;;;;;;0.00;0.00;;;18.40;99.90;;;;;;5092350;28;20247;-67
2023/07/30 03:20:19;;;;;;;0.00;0.00;;;18.40;99.90;;;;;;5091454;28;20184;-67
2023/07/30 03:22:44;;;;;;;0.00;0.00;;;18.40;99.90;;;;;;5092371;28;20222;-67
2023/07/30 03:25:10;;;;;;;0.00;0.00;;;18.40;99.90;;;;;;5092788;28;20546;-67
2023/07/30 03:27:35;;;;;;;0.00;0.00;;;18.40;99.90;;;;;;5091765;28;20261;-67
2023/07/30 03:30:01;;;;;;;0.00;0.00;;;18.40;99.90;;;;;;5092842;28;20180;-67
2023/07/30 03:32:26;;;;;;;0.00;0.00;;;18.40;99.90;;;;;;5092810;28;20172;-67
2023/07/30 03:34:52;;;;;;;0.00;0.00;;;18.40;99.90;;;;;;5092771;28;20188;-67
2023/07/30 03:37:17;;;;;;;0.00;0.00;;;18.50;99.90;;;;;;5091932;28;20208;-67
2023/07/30 03:39:43;;;;;;;0.00;0.00;;;18.50;99.90;;;;;;5092148;28;20680;-67
2023/07/30 03:42:08;;;;;;;0.00;0.00;;;18.50;99.90;;;;;;5090754;28;20639;-67
2023/07/30 03:44:34;;;;;;;0.00;0.00;;;18.50;99.90;;;;;;5091947;28;20589;-67
2023/07/30 03:46:59;;;;;;;0.00;0.00;;;18.50;99.90;;;;;;5092252;28;20553;-67
2023/07/30 03:49:25;;;;;;;0.03;0.03;;;18.50;99.90;;;;;;5092241;28;20358;-67
2023/07/30 03:51:50;;;;;;;0.00;0.00;;;18.50;99.90;;;;;;5091354;28;20182;-67
2023/07/30 03:54:16;;;;;;;0.03;0.03;;;18.50;99.90;;;;;;5091149;28;20649;-67
2023/07/30 03:56:41;;;;;;;0.00;0.00;;;18.50;99.90;;;;;;5091494;28;20215;-67
2023/07/30 03:59:07;;;;;;;0.00;0.00;;;18.50;99.90;;;;;;5092119;28;20184;-67
2023/07/30 04:01:33;;;;;;;0.05;0.05;;;18.50;99.90;;;;;;5091875;28;20702;-66
2023/07/30 04:03:59;;;;;;;0.00;0.00;;;18.50;99.90;;;;;;5092277;28;20178;-66
2023/07/30 04:06:24;;;;;;;0.00;0.00;;;18.50;99.90;;;;;;5082880;28;20189;-66
2023/07/30 04:08:50;;;;;;;0.00;0.00;;;18.50;99.90;;;;;;5091750;28;20289;-66
2023/07/30 04:11:15;;;;;;;0.03;0.03;;;18.50;99.90;;;;;;5081144;28;20215;-66
2023/07/30 04:13:42;;;;;;;0.15;0.15;;;18.40;99.90;;;;;;5091191;28;20181;-66
2023/07/30 04:16:07;;;;;;;0.00;0.00;;;18.50;99.90;;;;;;5092010;28;20186;-66
2023/07/30 04:18:33;;;;;;;0.00;0.00;;;18.50;99.90;;;;;;5091554;28;20663;-66
2023/07/30 04:20:59;;;;;;;0.00;0.00;;;18.50;99.90;;;;;;5091969;28;20221;-66
2023/07/30 04:23:24;;;;;;;0.00;0.00;;;18.50;99.90;;;;;;5091217;28;20237;-66
2023/07/30 04:25:50;;;;;;;0.00;0.00;;;18.50;99.90;;;;;;5091508;28;20172;-66
2023/07/30 04:28:16;;;;;;;0.00;0.00;;;18.60;99.90;;;;;;5090986;28;20234;-66
2023/07/30 04:30:41;;;;;;;0.00;0.00;;;18.60;99.90;;;;;;5091742;28;20635;-66
2023/07/30 04:33:07;;;;;;;0.00;0.00;;;18.50;99.90;;;;;;5091439;28;20183;-66
2023/07/30 04:35:32;;;;;;;0.00;0.00;;;18.60;99.90;;;;;;5091321;28;20614;-66
2023/07/30 04:37:58;;;;;;;0.00;0.00;;;18.60;99.90;;;;;;5091092;28;20222;-66
2023/07/30 04:40:23;;;;;;;0.00;0.00;;;18.60;99.90;;;;;;5091177;28;20535;-66
2023/07/30 04:42:49;;;;;;;0.13;0.13;;;18.60;99.90;;;;;;5090905;28;20237;-66
2023/07/30 04:45:14;;;;;;;0.00;0.00;;;18.60;99.90;;;;;;5091264;28;20180;-66
2023/07/30 04:47:40;;;;;;;0.00;0.00;;;18.50;99.90;;;;;;5090802;28;20180;-66
2023/07/30 04:50:06;;;;;;;0.00;0.00;;;18.50;99.90;;;;;;5091426;28;20183;-67
2023/07/30 04:52:31;;;;;;;0.00;0.00;;;18.50;99.90;;;;;;5090342;28;20195;-66
2023/07/30 04:54:57;;;;;;;0.00;0.00;;;18.50;99.90;;;;;;5091313;28;20179;-66
2023/07/30 04:57:22;;;;;;;0.30;0.30;;;18.50;99.90;;;;;;5088697;28;20232;-66
2023/07/30 04:59:48;;;;;;;0.00;0.00;;;18.40;99.90;;;;;;5091024;28;20191;-66
2023/07/30 05:02:13;;;;;;;0.00;0.00;;;18.40;99.90;;;;;;5091180;28;20275;-66
2023/07/30 05:04:39;;;;;;;0.00;0.00;;;18.40;99.90;;;;;;5089583;28;20182;-65
2023/07/30 05:07:05;;;;;;;0.00;0.00;;;18.30;99.90;;;;;;5090742;28;20845;-66
2023/07/30 05:09:30;;;;;;;0.00;0.00;;;18.30;99.90;;;;;;5090365;28;20192;-66
2023/07/30 05:11:56;;;;;;;0.00;0.00;;;18.20;99.90;;;;;;5086319;28;20187;-66
2023/07/30 05:14:21;;;;;;;0.00;0.00;;;18.20;99.90;;;;;;5090120;28;20192;-66
2023/07/30 05:16:47;;;;;;;0.00;0.00;;;18.20;99.90;;;;;;5090643;28;20208;-66
2023/07/30 05:19:12;;;;;;;0.00;0.00;;;18.10;99.90;;;;;;5090312;28;20215;-66
2023/07/30 05:21:38;;;;;;;0.10;0.10;;;18.10;99.90;;;;;;5090408;28;20242;-66
2023/07/30 05:24:04;;;;;;;0.00;0.00;;;18.10;99.90;;;;;;5089818;28;20234;-67
2023/07/30 05:26:29;;;;;;;0.00;0.00;;;18.10;99.90;;;;;;5090110;28;20184;-66
2023/07/30 05:28:55;;;;;;;0.00;0.00;;;18.10;99.90;;;;;;5090406;28;20228;-67
2023/07/30 05:31:20;;;;;;;0.00;0.00;;;18.10;99.90;;;;;;5090687;28;20176;-67
2023/07/30 05:33:46;;;;;;;0.00;0.00;;;18.10;99.90;;;;;;5088496;28;20172;-67
2023/07/30 05:36:11;;;;;;;0.00;0.00;;;18.10;99.90;;;;;;5090346;28;20204;-67
2023/07/30 05:38:37;;;;;;;0.00;0.00;;;18.10;99.90;;;;;;5089947;28;20198;-67
2023/07/30 05:41:02;;;;;;;0.00;0.00;;;18.10;99.90;;;;;;5089854;28;20184;-66
2023/07/30 05:43:28;;;;;;;0.00;0.00;;;18.10;99.90;;;;;;5089813;28;20599;-66
2023/07/30 05:45:53;;;;;;;0.00;0.00;;;18.10;99.90;;;;;;5094303;28;20176;-66
2023/07/30 05:48:19;;;;;;;0.00;0.00;;;18.10;99.90;;;;;;5094488;28;20262;-67
2023/07/30 05:50:44;;;;;;;0.00;0.00;;;18.20;99.90;;;;;;5093109;28;20198;-67
2023/07/30 05:53:10;;;;;;;0.00;0.00;;;18.40;99.90;;;;;;5092227;28;20566;-67
2023/07/30 05:55:35;;;;;;;0.00;0.00;;;18.80;99.90;;;;;;5093507;28;20786;-67
2023/07/30 05:58:01;;;;;;;0.00;0.00;;;19.10;99.90;;;;;;5092871;28;20675;-67
2023/07/30 06:00:26;;;;;;;0.00;0.00;;;19.50;99.90;;;;;;5093426;28;20263;-67
2023/07/30 06:02:52;;;;;;;0.00;0.00;;;19.70;99.90;;;;;;5093995;28;20192;-67
2023/07/30 06:05:18;;;;;;;0.00;0.00;;;19.90;99.90;;;;;;5093840;28;20188;-67
2023/07/30 06:07:43;;;;;;;0.08;0.08;;;20.20;99.90;;;;;;5093553;28;20569;-67
2023/07/30 06:10:09;;;;;;;0.00;0.00;;;20.60;99.90;;;;;;5094003;28;20176;-67
2023/07/30 06:12:34;;;;;;;0.00;0.00;;;20.50;99.90;;;;;;5091939;28;20184;-68
2023/07/30 06:15:00;;;;;;;0.00;0.00;;;20.30;99.90;;;;;;5093902;28;20219;-67
2023/07/30 06:17:25;;;;;;;0.00;0.00;;;20.10;99.90;;;;;;5093693;28;20230;-67
2023/07/30 06:19:51;;;;;;;0.00;0.00;;;19.90;99.90;;;;;;5093724;28;20184;-67
2023/07/30 06:22:16;;;;;;;0.00;0.00;;;19.80;99.90;;;;;;5093462;28;20225;-67
2023/07/30 06:24:42;;;;;;;0.00;0.00;;;19.80;99.90;;;;;;5093013;28;20227;-67
2023/07/30 06:27:09;;;;;;;0.00;0.00;;;19.70;99.90;;;;;;5091522;28;20651;-67
2023/07/30 06:29:35;;;;;;;0.00;0.00;;;19.60;99.90;;;;;;5093627;28;20216;-67
2023/07/30 06:32:01;;;;;;;0.10;0.10;;;19.70;99.90;;;;;;5093137;28;20640;-67
2023/07/30 06:34:26;;;;;;;0.00;0.00;;;19.70;99.90;;;;;;5093723;28;20195;-67
2023/07/30 06:36:52;;;;;;;0.00;0.00;;;19.70;99.90;;;;;;5093803;28;20207;-66
2023/07/30 06:39:17;;;;;;;0.00;0.00;;;19.70;99.90;;;;;;5093178;28;20180;-67
2023/07/30 06:41:43;;;;;;;0.00;0.00;;;19.80;99.90;;;;;;5093378;28;20187;-67
2023/07/30 06:44:08;;;;;;;0.00;0.00;;;19.90;99.90;;;;;;5093340;28;20180;-67
2023/07/30 06:46:34;;;;;;;0.00;0.00;;;20.00;99.90;;;;;;5093322;28;20270;-67
2023/07/30 06:48:59;;;;;;;0.00;0.00;;;20.20;99.90;;;;;;5093392;28;20535;-67
2023/07/30 06:51:26;;;;;;;0.00;0.00;;;20.40;99.90;;;;;;5093357;28;20229;-67
2023/07/30 06:53:52;;;;;;;0.00;0.00;;;20.50;99.90;;;;;;5092949;28;20180;-67
2023/07/30 06:56:18;;;;;;;0.00;0.00;;;20.60;99.90;;;;;;5092079;28;20743;-67
2023/07/30 06:58:43;;;;;;;0.00;0.00;;;20.60;99.90;;;;;;5093371;28;20574;-67
2023/07/30 07:01:09;;;;;;;0.00;0.00;;;20.50;99.90;;;;;;5093387;28;20183;-67
2023/07/30 07:03:34;;;;;;;0.20;0.20;;;20.40;99.90;;;;;;5092996;28;20702;-67
2023/07/30 07:06:00;;;;;;;0.00;0.00;;;20.30;99.90;;;;;;5093124;28;20655;-66
2023/07/30 07:08:27;;;;;;;0.00;0.00;;;20.10;99.90;;;;;;5092359;28;20278;-67
2023/07/30 07:10:52;;;;;;;0.00;0.00;;;19.90;99.90;;;;;;5092835;28;20175;-67
2023/07/30 07:13:18;;;;;;;0.00;0.00;;;19.90;99.90;;;;;;5092440;28;20196;-67
2023/07/30 07:15:44;;;;;;;0.00;0.00;;;19.80;99.90;;;;;;5090997;28;20172;-67
2023/07/30 07:18:10;;;;;;;0.00;0.00;;;19.80;99.90;;;;;;5092617;28;20231;-66
2023/07/30 07:20:37;;;;;;;0.00;0.00;;;19.70;99.90;;;;;;5092249;28;20639;-66
2023/07/30 07:23:02;;;;;;;0.00;0.00;;;19.70;99.90;;;;;;5092452;28;20176;-66
2023/07/30 07:25:28;;;;;;;0.00;0.00;;;19.60;99.90;;;;;;5092251;28;20179;-66
2023/07/30 07:27:53;;;;;;;0.00;0.00;;;19.60;99.90;;;;;;5092225;28;20255;-66
2023/07/30 07:30:19;;;;;;;0.00;0.00;;;19.50;99.90;;;;;;5092249;28;20179;-66
2023/07/30 07:32:44;;;;;;;0.00;0.00;;;19.50;99.90;;;;;;5093216;28;20176;-67
2023/07/30 07:35:10;;;;;;;0.00;0.00;;;19.40;99.90;;;;;;5092842;28;20663;-66
2023/07/30 07:37:36;;;;;;;0.00;0.00;;;19.30;99.90;;;;;;5092682;28;20218;-67
2023/07/30 07:40:03;;;;;;;0.00;0.00;;;19.20;99.90;;;;;;5092290;28;20184;-67
2023/07/30 07:42:29;;;;;;;0.00;0.00;;;19.20;99.90;;;;;;5092861;28;20173;-67
2023/07/30 07:44:55;;;;;;;0.00;0.00;;;19.10;99.90;;;;;;5092519;28;20608;-67
2023/07/30 07:47:20;;;;;;;0.00;0.00;;;19.20;99.90;;;;;;5092618;28;20223;-67
2023/07/30 07:49:46;;;;;;;0.00;0.00;;;19.30;99.90;;;;;;5092144;28;20650;-67
2023/07/30 07:52:12;;;;;;;0.00;0.00;;;19.30;99.90;;;;;;5091767;28;20176;-70
2023/07/30 07:54:37;;;;;;;0.00;0.00;;;19.40;99.90;;;;;;5092212;28;20172;-66
2023/07/30 07:57:03;;;;;;;0.00;0.00;;;19.50;99.90;;;;;;5092407;28;20216;-67
2023/07/30 07:59:29;;;;;;;0.00;0.00;;;19.50;99.90;;;;;;5091803;28;20233;-67
2023/07/30 08:01:54;;;;;;;0.00;0.00;;;19.50;99.90;;;;;;5092171;28;20259;-66
2023/07/30 08:04:21;;;;;;;0.00;0.00;;;19.40;99.90;;;;;;5091547;28;20207;-68
2023/07/30 08:06:47;;;;;;;0.00;0.00;;;19.40;99.90;;;;;;5092284;28;20184;-69
2023/07/30 08:09:13;;;;;;;0.00;0.00;;;19.50;99.90;;;;;;5092398;28;20325;-69
2023/07/30 08:11:38;;;;;;;0.00;0.00;;;19.60;99.90;;;;;;5092167;28;20237;-69
2023/07/30 08:14:04;;;;;;;0.10;0.10;;;19.80;99.90;;;;;;5087608;28;20176;-68
2023/07/30 08:16:29;;;;;;;0.00;0.00;;;20.00;99.90;;;;;;5089572;28;20204;-67
2023/07/30 08:18:55;;;;;;;0.00;0.00;;;20.40;99.90;;;;;;5091766;28;20180;-67
2023/07/30 08:21:21;;;;;;;0.00;0.00;;;20.90;99.90;;;;;;5073688;28;20639;-67
2023/07/30 08:23:46;;;;;;;0.00;0.00;;;21.20;99.90;;;;;;5091281;28;20290;-66
2023/07/30 08:26:12;;;;;;;0.00;0.00;;;21.50;99.90;;;;;;5091450;28;20211;-67
2023/07/30 08:28:38;;;;;;;0.00;0.00;;;21.60;99.90;;;;;;5091798;28;20230;-68
2023/07/30 08:31:03;;;;;;;0.00;0.00;;;21.80;99.90;;;;;;5090720;28;20184;-67
2023/07/30 08:33:29;;;;;;;0.00;0.00;;;22.10;99.90;;;;;;5092000;28;20168;-69
2023/07/30 08:35:56;;;;;;;0.00;0.00;;;22.50;99.90;;;;;;5091029;28;20536;-67
2023/07/30 08:38:21;;;;;;;0.00;0.00;;;22.70;99.90;;;;;;5091663;28;20238;-66
2023/07/30 08:40:47;;;;;;;0.00;0.00;;;23.00;99.90;;;;;;5091689;28;20533;-67
2023/07/30 08:43:13;;;;;;;0.00;0.00;;;23.00;99.90;;;;;;5091645;28;20188;-67
2023/07/30 08:45:38;;;;;;;0.00;0.00;;;22.90;99.90;;;;;;5091656;28;20202;-67
2023/07/30 08:48:04;;;;;;;0.00;0.00;;;22.80;99.90;;;;;;5091881;28;20528;-67
2023/07/30 08:50:30;;;;;;;0.00;0.00;;;22.70;99.90;;;;;;5091940;28;20638;-67
2023/07/30 08:52:57;;;;;;;0.00;0.00;;;22.70;99.90;;;;;;5091549;28;20662;-67
2023/07/30 08:55:24;;;;;;;0.00;0.00;;;22.60;99.90;;;;;;5091424;28;20186;-67
2023/07/30 08:57:51;;;;;;;0.00;0.00;;;22.70;99.90;;;;;;5091610;28;20215;-67
2023/07/30 09:00:19;;;;;;;0.00;0.00;;;22.60;99.90;;;;;;5091450;28;20175;-67
2023/07/30 09:02:51;;;;;;;0.00;0.00;;;22.60;99.90;;;;;;5099895;28;20569;-67
2023/07/30 09:05:18;;;;;;;0.00;0.00;;;22.70;99.90;;;;;;5092235;28;20192;-68
2023/07/30 09:07:44;;;;;;;0.00;0.00;;;23.00;99.90;;;;;;5100430;28;20172;-68
2023/07/30 09:10:11;;;;;;;0.00;0.00;;;23.10;99.90;;;;;;5092587;28;20179;-67
2023/07/30 09:12:37;;;;;;;0.00;0.00;;;22.90;99.90;;;;;;5090784;28;20183;-67
2023/07/30 09:15:06;;;;;;;0.00;0.00;;;23.10;99.90;;;;;;5086495;28;20188;-67
2023/07/30 09:17:32;;;;;;;0.00;0.00;;;23.20;99.90;;;;;;5091187;28;20215;-67
2023/07/30 09:20:03;;;;;;;0.00;0.00;;;23.30;99.90;;;;;;5094842;28;20275;-67
2023/07/30 09:22:36;;;;;;;0.00;0.00;;;23.40;99.90;;;;;;5095013;28;20188;-67
2023/07/30 09:25:03;;;;;;;0.00;0.00;;;23.60;99.90;;;;;;5093787;28;20214;-67
2023/07/30 09:27:28;;;;;;;0.00;0.00;;;23.90;99.90;;;;;;5094880;28;20235;-67
2023/07/30 09:29:56;;;;;;;0.00;0.00;;;24.10;99.90;;;;;;5099820;28;20167;-67
2023/07/30 09:32:33;;;;;;;0.00;0.00;;;23.70;99.90;;;;;;5114410;28;20262;-67
2023/07/30 09:35:09;;;;;;;0.00;0.00;;;23.90;99.90;;;;;;5083382;28;20175;-67
2023/07/30 09:37:40;;;;;;;0.00;0.00;;;23.90;99.90;;;;;;5105222;28;20573;-68
2023/07/30 09:40:12;;;;;;;0.00;0.00;;;24.20;99.90;;;;;;5095024;28;20650;-67
2023/07/30 09:42:41;;;;;;;0.00;0.00;;;24.50;99.90;;;;;;5094618;28;20195;-67
2023/07/30 09:45:08;;;;;;;0.00;0.00;;;24.40;99.90;;;;;;5101745;28;20176;-68
2023/07/30 09:47:36;;;;;;;0.00;0.00;;;24.20;99.90;;;;;;5094779;28;20187;-67
2023/07/30 09:50:02;;;;;;;0.00;0.00;;;24.10;99.90;;;;;;5094588;28;20172;-68
2023/07/30 09:52:29;;;;;;;0.00;0.00;;;23.90;99.90;;;;;;5092884;28;20184;-67
2023/07/30 09:54:57;;;;;;;0.00;0.00;;;23.70;99.90;;;;;;5078281;28;20180;-68
2023/07/30 09:57:23;;;;;;;0.00;0.00;;;23.70;99.90;;;;;;5094567;28;20283;-68
2023/07/30 09:59:49;;;;;;;0.00;0.00;;;23.60;99.90;;;;;;5094341;28;20184;-68
2023/07/30 10:02:15;;;;;;;0.00;0.00;;;23.70;99.90;;;;;;5091977;28;20289;-67
2023/07/30 10:04:48;;;;;;;0.00;0.00;;;23.90;99.90;;;;;;5094535;28;20187;-68
2023/07/30 10:07:19;;;;;;;0.00;0.00;;;24.10;99.90;;;;;;5094327;28;20267;-68
2023/07/30 10:09:48;;;;;;;0.00;0.00;;;24.30;99.90;;;;;;5094477;28;20310;-68
2023/07/30 10:12:16;;;;;;;0.00;0.00;;;24.40;99.90;;;;;;5094341;28;20184;-68
2023/07/30 10:14:43;;;;;;;0.00;0.00;;;24.30;99.90;;;;;;5087722;28;20184;-69
2023/07/30 10:17:12;;;;;;;0.00;0.00;;;24.40;99.90;;;;;;5094005;28;20231;-67
2023/07/30 10:19:38;;;;;;;0.00;0.00;;;24.40;99.90;;;;;;5091518;28;20180;-67
2023/07/30 10:22:12;;;;;;;0.00;0.00;;;24.00;99.90;;;;;;5094404;28;20275;-69
2023/07/30 10:24:54;;;;;;;0.00;0.00;;;23.80;99.90;;;;;;5093174;28;20525;-69
2023/07/30 10:27:27;;;;;;;0.00;0.00;;;23.50;99.90;;;;;;5092655;28;20222;-69
2023/07/30 10:30:09;;;;;;;0.00;0.00;;;23.10;99.90;;;;;;5091736;28;20176;-69
2023/07/30 10:32:59;;;;;;;0.00;0.00;;;22.90;99.90;;;;;;5093932;28;20261;-68
2023/07/30 10:35:57;;;;;;;0.00;0.00;;;22.70;99.90;;;;;;5092498;28;20348;-68
2023/07/30 10:38:28;;;;;;;0.00;0.00;;;22.70;99.90;;;;;;5063235;28;20281;-70
2023/07/30 10:41:08;;;;;;;0.00;0.00;;;23.00;99.90;;;;;;5093471;28;20211;-68
2023/07/30 10:43:35;;;;;;;0.00;0.00;;;23.30;99.90;;;;;;5093103;28;20176;-68
2023/07/30 10:46:01;;;;;;;0.00;0.00;;;23.70;99.90;;;;;;5092800;28;20263;-69
2023/07/30 10:48:32;;;;;;;0.00;0.00;;;23.70;99.90;;;;;;5093077;28;20279;-69
2023/07/30 10:50:59;;;;;;;0.00;0.00;;;23.60;99.90;;;;;;5092674;28;20180;-68
2023/07/30 10:53:24;;;;;;;0.00;0.00;;;23.50;99.90;;;;;;5093344;28;20198;-68
2023/07/30 10:55:52;;;;;;;0.00;0.00;;;23.50;99.90;;;;;;5093570;28;20180;-68
2023/07/30 10:58:18;;;;;;;0.00;0.00;;;23.40;99.90;;;;;;5093153;28;20207;-68
2023/07/30 11:00:44;;;;;;;0.00;0.00;;;23.30;99.90;;;;;;5093223;28;20521;-69
2023/07/30 11:03:09;;;;;;;0.00;0.00;;;23.50;99.90;;;;;;5110776;27;20199;-69
2023/07/30 11:05:38;;;;;;;0.00;0.00;;;23.50;99.90;;;;;;5092556;28;20172;-68
2023/07/30 11:08:03;;;;;;;0.00;0.00;;;23.60;99.90;;;;;;5092036;28;20195;-68
2023/07/30 11:10:29;;;;;;;0.00;0.00;;;23.50;99.90;;;;;;5092603;28;20172;-68
2023/07/30 11:12:57;;;;;;;0.00;0.00;;;23.40;99.90;;;;;;5093232;28;20547;-68
2023/07/30 11:15:22;;;;;;;0.00;0.00;;;23.50;99.90;;;;;;5093110;28;20673;-69
2023/07/30 11:17:49;;;;;;;0.00;0.00;;;23.70;99.90;;;;;;5092889;28;20269;-68
2023/07/30 11:20:27;;;;;;;0.00;0.00;;;23.80;99.10;;;;;;5091983;28;20333;-68
2023/07/30 11:22:53;;;;;;;0.00;0.00;;;24.00;99.10;;;;;;5093085;28;20274;-68
2023/07/30 11:25:19;;;;;;;0.00;0.00;;;24.20;98.40;;;;;;5092269;28;20176;-68
2023/07/30 11:27:49;;;;;;;0.00;0.00;;;24.40;98.60;;;;;;5092242;28;20224;-68
2023/07/30 11:30:15;;;;;;;0.00;0.00;;;24.80;97.80;;;;;;5092866;28;20259;-68
2023/07/30 11:32:44;;;;;;;0.00;0.00;;;25.20;97.60;;;;;;5092782;28;20223;-68
2023/07/30 11:35:11;;;;;;;0.00;0.00;;;25.60;96.40;;;;;;5091510;28;20188;-68
2023/07/30 11:37:39;;;;;;;0.00;0.00;;;25.60;95.60;;;;;;5079473;28;20212;-68
2023/07/30 11:40:09;;;;;;;0.00;0.00;;;25.50;94.50;;;;;;5091150;28;20649;-68
2023/07/30 11:42:36;;;;;;;0.00;0.00;;;25.70;94.40;;;;;;5091472;28;20621;-68
2023/07/30 11:45:21;;;;;;;0.00;0.00;;;25.70;92.80;;;;;;5092097;28;20578;-68
2023/07/30 11:47:47;;;;;;;0.00;0.00;;;25.20;93.00;;;;;;5092901;28;20179;-68
2023/07/30 11:50:14;;;;;;;0.00;0.00;;;24.90;92.70;;;;;;5089994;28;20188;-68
2023/07/30 11:52:56;;;;;;;0.08;0.08;;;25.10;93.60;;;;;;5092242;28;20524;-69
2023/07/30 11:55:24;;;;;;;0.00;0.00;;;25.10;92.30;;;;;;5092244;28;20176;-68
2023/07/30 11:57:50;;;;;;;0.00;0.00;;;24.80;91.70;;;;;;5092570;28;20216;-69
2023/07/30 12:00:15;;;;;;;0.00;0.00;;;24.90;93.10;;;;;;5092416;28;20395;-68
2023/07/30 12:02:41;;;;;;;0.00;0.00;;;25.10;93.10;;;;;;5090792;28;20177;-68
2023/07/30 12:05:10;;;;;;;0.00;0.00;;;25.60;94.30;;;;;;5089625;28;20647;-68
2023/07/30 12:07:41;;;;;;;0.00;0.00;;;26.00;93.10;;;;;;5089463;28;20200;-68
2023/07/30 12:10:11;;;;;;;0.00;0.00;;;26.20;93.00;;;;;;5088843;28;20176;-68
2023/07/30 12:12:43;;;;;;;0.00;0.00;;;26.40;92.30;;;;;;5092195;28;20186;-66
2023/07/30 12:15:13;;;;;;;0.00;0.00;;;26.40;91.60;;;;;;5073759;28;20179;-66
2023/07/30 12:17:39;;;;;;;0.03;0.03;;;26.50;91.40;;;;;;5091867;28;20686;-66
2023/07/30 12:20:06;;;;;;;0.00;0.00;;;26.40;91.00;;;;;;5092099;28;20266;-68
2023/07/30 12:22:35;;;;;;;0.00;0.00;;;26.70;91.80;;;;;;5091576;28;20188;-68
2023/07/30 12:25:03;;;;;;;0.00;0.00;;;26.80;90.60;;;;;;5077087;28;20172;-68
2023/07/30 12:27:28;;;;;;;0.00;0.00;;;26.90;90.10;;;;;;5107105;28;20272;-68
2023/07/30 12:29:54;;;;;;;0.00;0.00;;;26.70;88.90;;;;;;5112278;28;20168;-69
2023/07/30 12:32:19;;;;;;;0.00;0.00;;;26.50;87.40;;;;;;5104091;28;20184;-69
2023/07/30 12:34:45;;;;;;;0.00;0.00;;;26.20;90.20;;;;;;5091987;28;20227;-70
2023/07/30 12:37:10;;;;;;;0.00;0.00;;;25.90;89.50;;;;;;5091915;28;20807;-70
2023/07/30 12:39:36;;;;;;;0.00;0.00;;;25.50;89.00;;;;;;5091651;28;20171;-69
2023/07/30 12:42:02;;;;;;;0.00;0.00;;;25.30;88.90;;;;;;5091813;28;20658;-68
2023/07/30 12:44:27;;;;;;;0.00;0.00;;;24.80;90.00;;;;;;5091602;28;20176;-69